createdAt,value
2018-12-29T00:00:48.178Z,3.10
2018-12-29T00:01:21.517Z,3.67
2018-12-29T00:01:54.397Z,3.20
2018-12-29T00:02:26.899Z,3.30
2018-12-29T00:02:59.495Z,2.80
2018-12-29T00:03:31.975Z,3.12
2018-12-29T00:04:04.431Z,2.95
2018-12-29T00:04:36.921Z,3.05
2018-12-29T00:05:09.822Z,3.08
2018-12-29T00:05:42.277Z,4.25
2018-12-29T00:06:14.756Z,3.10
2018-12-29T00:06:47.243Z,3.27
2018-12-29T00:07:20.942Z,3.30
2018-12-29T00:07:53.735Z,3.62
2018-12-29T00:08:26.230Z,3.15
2018-12-29T00:08:58.989Z,3.02
2018-12-29T00:09:32.859Z,3.83
2018-12-29T00:10:05.454Z,2.58
2018-12-29T00:10:37.927Z,3.37
2018-12-29T00:11:10.778Z,3.08
2018-12-29T00:11:43.238Z,3.50
2018-12-29T00:12:15.697Z,3.50
2018-12-29T00:12:48.189Z,3.25
2018-12-29T00:13:20.655Z,3.30
2018-12-29T00:13:53.127Z,3.33
2018-12-29T00:14:26.081Z,3.55
2018-12-29T00:14:58.559Z,3.50
2018-12-29T00:15:31.051Z,3.62
2018-12-29T00:16:03.725Z,4.30
2018-12-29T00:16:36.549Z,3.27
2018-12-29T00:17:09.290Z,3.70
2018-12-29T00:17:41.746Z,3.22
2018-12-29T00:18:14.197Z,3.80
2018-12-29T00:18:47.115Z,4.45
2018-12-29T00:19:19.629Z,3.50
2018-12-29T00:19:52.085Z,4.10
2018-12-29T00:20:24.555Z,3.90
2018-12-29T00:20:57.060Z,4.00
2018-12-29T00:21:29.791Z,3.42
2018-12-29T00:22:02.237Z,3.90
2018-12-29T00:22:34.712Z,3.52
2018-12-29T00:23:07.559Z,3.67
2018-12-29T00:23:40.339Z,3.22
2018-12-29T00:24:13.618Z,4.30
2018-12-29T00:24:46.092Z,3.70
2018-12-29T00:25:19.364Z,3.60
2018-12-29T00:25:52.111Z,3.45
2018-12-29T00:26:24.615Z,4.10
2018-12-29T00:26:57.079Z,3.42
2018-12-29T00:27:29.919Z,3.70
2018-12-29T00:28:02.388Z,4.40
2018-12-29T00:28:35.356Z,3.70
2018-12-29T00:29:07.907Z,4.47
2018-12-29T00:29:40.739Z,4.05
2018-12-29T00:30:13.629Z,4.40
2018-12-29T00:30:46.093Z,5.22
2018-12-29T00:31:18.558Z,4.67
2018-12-29T00:31:51.742Z,4.33
2018-12-29T00:32:24.247Z,4.30
2018-12-29T00:32:57.003Z,4.67
2018-12-29T00:33:29.461Z,4.67
2018-12-29T00:34:01.917Z,4.53
2018-12-29T00:34:34.665Z,4.97
2018-12-29T00:35:07.125Z,4.85
2018-12-29T00:35:39.603Z,4.92
2018-12-29T00:36:12.369Z,4.83
2018-12-29T00:36:45.381Z,5.58
2018-12-29T00:37:18.167Z,5.25
2018-12-29T00:37:50.613Z,4.90
2018-12-29T00:38:23.079Z,5.45
2018-12-29T00:38:55.834Z,5.70
2018-12-29T00:39:28.323Z,5.30
2018-12-29T00:40:00.819Z,5.65
2018-12-29T00:40:33.257Z,4.80
2018-12-29T00:41:07.881Z,5.08
2018-12-29T00:41:40.350Z,5.62
2018-12-29T00:42:12.800Z,5.65
2018-12-29T00:42:45.305Z,6.22
2018-12-29T00:43:18.447Z,5.95
2018-12-29T00:43:50.913Z,5.90
2018-12-29T00:44:23.668Z,5.70
2018-12-29T00:45:02.247Z,6.10
2018-12-29T00:45:30.395Z,6.45
2018-12-29T00:46:02.847Z,6.83
2018-12-29T00:46:35.327Z,5.25
2018-12-29T00:47:07.886Z,5.42
2018-12-29T00:47:40.271Z,5.20
2018-12-29T00:48:12.779Z,6.28
2018-12-29T00:48:45.224Z,4.83
2018-12-29T00:49:17.703Z,5.87
2018-12-29T00:49:50.153Z,5.60
2018-12-29T00:50:22.608Z,6.12
2018-12-29T00:50:55.487Z,5.15
2018-12-29T00:51:49.413Z,6.08
2018-12-29T00:52:22.002Z,5.20
2018-12-29T00:52:54.453Z,5.35
2018-12-29T00:53:27.280Z,5.70
2018-12-29T00:54:00.147Z,5.20
2018-12-29T00:54:32.953Z,5.70
2018-12-29T00:55:05.663Z,6.08
2018-12-29T00:55:38.120Z,6.65
2018-12-29T00:56:10.574Z,5.95
2018-12-29T00:56:43.741Z,6.00
2018-12-29T00:57:16.323Z,5.80
2018-12-29T00:57:48.786Z,6.28
2018-12-29T00:58:21.659Z,6.62
2018-12-29T00:58:54.484Z,6.33
2018-12-29T00:59:28.036Z,5.95
2018-12-29T01:00:00.471Z,6.25
2018-12-29T01:00:33.047Z,7.25
2018-12-29T01:01:05.492Z,5.70
2018-12-29T01:01:37.934Z,6.65
2018-12-29T01:02:10.400Z,6.35
2018-12-29T01:02:42.855Z,6.55
2018-12-29T01:03:15.751Z,6.58
2018-12-29T01:03:48.220Z,6.50
2018-12-29T01:04:20.715Z,6.92
2018-12-29T01:04:53.479Z,6.50
2018-12-29T01:05:25.947Z,5.92
2018-12-29T01:05:58.431Z,6.20
2018-12-29T01:06:30.886Z,6.87
2018-12-29T01:07:03.710Z,6.35
2018-12-29T01:07:36.158Z,7.15
2018-12-29T01:08:08.972Z,7.28
2018-12-29T01:08:42.060Z,6.25
2018-12-29T01:09:14.518Z,7.30
2018-12-29T01:09:46.985Z,7.08
2018-12-29T01:10:19.467Z,6.78
2018-12-29T01:10:51.929Z,6.78
2018-12-29T01:11:24.387Z,7.12
2018-12-29T01:11:56.848Z,6.90
2018-12-29T01:12:29.651Z,7.03
2018-12-29T01:13:02.107Z,7.30
2018-12-29T01:13:34.549Z,7.50
2018-12-29T01:14:07.034Z,7.10
2018-12-29T01:14:39.606Z,6.90
2018-12-29T01:15:12.100Z,7.10
2018-12-29T01:15:44.821Z,6.28
2018-12-29T01:16:17.288Z,7.90
2018-12-29T01:16:49.751Z,6.85
2018-12-29T01:17:22.207Z,6.80
2018-12-29T01:17:54.676Z,7.15
2018-12-29T01:18:27.157Z,7.10
2018-12-29T01:19:00.007Z,6.62
2018-12-29T01:19:32.449Z,7.05
2018-12-29T01:20:05.303Z,7.17
2018-12-29T01:20:37.811Z,7.42
2018-12-29T01:21:10.663Z,6.90
2018-12-29T01:21:43.117Z,6.75
2018-12-29T01:22:15.569Z,7.33
2018-12-29T01:22:48.022Z,6.45
2018-12-29T01:23:20.474Z,6.47
2018-12-29T01:23:52.934Z,6.50
2018-12-29T01:24:25.402Z,6.78
2018-12-29T01:24:57.871Z,5.75
2018-12-29T01:25:30.326Z,6.70
2018-12-29T01:26:02.818Z,7.05
2018-12-29T01:26:35.275Z,6.62
2018-12-29T01:27:07.726Z,6.65
2018-12-29T01:27:40.174Z,6.55
2018-12-29T01:28:12.625Z,7.08
2018-12-29T01:28:45.100Z,7.58
2018-12-29T01:29:17.552Z,6.35
2018-12-29T01:29:50.024Z,7.08
2018-12-29T01:30:22.469Z,5.80
2018-12-29T01:30:54.935Z,6.75
2018-12-29T01:31:27.421Z,6.20
2018-12-29T01:31:59.865Z,6.12
2018-12-29T01:32:32.594Z,5.95
2018-12-29T01:33:05.041Z,6.12
2018-12-29T01:33:37.497Z,6.92
2018-12-29T01:34:10.280Z,6.87
2018-12-29T01:34:43.044Z,6.35
2018-12-29T01:35:15.498Z,6.12
2018-12-29T01:35:47.963Z,5.58
2018-12-29T01:36:20.423Z,6.40
2018-12-29T01:36:52.919Z,6.08
2018-12-29T01:37:25.387Z,6.80
2018-12-29T01:37:58.209Z,6.15
2018-12-29T01:38:30.677Z,6.35
2018-12-29T01:39:04.216Z,5.05
2018-12-29T01:39:36.671Z,6.30
2018-12-29T01:40:09.124Z,6.22
2018-12-29T01:40:41.591Z,5.83
2018-12-29T01:41:14.058Z,6.80
2018-12-29T01:41:46.510Z,7.05
2018-12-29T01:42:19.017Z,5.85
2018-12-29T01:42:51.800Z,6.33
2018-12-29T01:43:24.245Z,5.80
2018-12-29T01:43:56.705Z,5.90
2018-12-29T01:44:29.168Z,6.85
2018-12-29T01:45:01.641Z,6.15
2018-12-29T01:45:34.108Z,6.40
2018-12-29T01:46:06.609Z,6.15
2018-12-29T01:46:39.087Z,6.28
2018-12-29T01:47:11.545Z,6.25
2018-12-29T01:47:44.347Z,6.45
2018-12-29T01:48:16.823Z,6.25
2018-12-29T01:48:49.292Z,6.65
2018-12-29T01:49:21.746Z,6.80
2018-12-29T01:49:54.219Z,7.25
2018-12-29T01:50:26.689Z,7.08
2018-12-29T01:50:59.126Z,6.97
2018-12-29T01:51:31.591Z,6.08
2018-12-29T01:52:04.039Z,6.60
2018-12-29T01:52:36.515Z,6.17
2018-12-29T01:53:09.107Z,7.30
2018-12-29T01:53:46.873Z,6.78
2018-12-29T01:54:19.322Z,7.03
2018-12-29T01:54:51.801Z,6.60
2018-12-29T01:55:24.275Z,7.08
2018-12-29T01:55:56.721Z,7.80
2018-12-29T01:56:29.463Z,6.90
2018-12-29T01:57:01.945Z,7.75
2018-12-29T01:57:34.795Z,7.92
2018-12-29T01:58:07.258Z,7.47
2018-12-29T01:58:40.314Z,7.70
2018-12-29T01:59:12.767Z,7.45
2018-12-29T01:59:45.237Z,7.42
2018-12-29T02:00:17.690Z,8.13
2018-12-29T02:00:50.513Z,8.28
2018-12-29T02:01:22.962Z,7.85
2018-12-29T02:01:55.425Z,8.60
2018-12-29T02:02:27.873Z,8.23
2018-12-29T02:03:00.322Z,7.70
2018-12-29T02:03:32.791Z,8.63
2018-12-29T02:04:05.275Z,8.10
2018-12-29T02:04:37.729Z,7.85
2018-12-29T02:05:12.249Z,8.38
2018-12-29T02:05:45.088Z,7.70
2018-12-29T02:06:17.559Z,8.48
2018-12-29T02:06:50.386Z,8.58
2018-12-29T02:07:22.847Z,8.35
2018-12-29T02:07:55.297Z,8.30
2018-12-29T02:08:28.104Z,8.48
2018-12-29T02:09:00.885Z,8.00
2018-12-29T02:09:33.366Z,8.80
2018-12-29T02:10:05.820Z,9.18
2018-12-29T02:10:38.287Z,9.43
2018-12-29T02:11:10.747Z,9.05
2018-12-29T02:11:43.207Z,9.50
2018-12-29T02:12:15.669Z,8.53
2018-12-29T02:12:48.123Z,9.05
2018-12-29T02:13:20.944Z,9.10
2018-12-29T02:13:53.419Z,9.30
2018-12-29T02:14:25.875Z,9.00
2018-12-29T02:14:58.391Z,9.18
2018-12-29T02:15:30.851Z,9.23
2018-12-29T02:16:03.311Z,8.80
2018-12-29T02:16:36.112Z,9.40
2018-12-29T02:17:08.570Z,9.13
2018-12-29T02:17:41.303Z,9.18
2018-12-29T02:18:14.100Z,10.35
2018-12-29T02:18:46.565Z,9.45
2018-12-29T02:19:19.029Z,10.90
2018-12-29T02:19:51.847Z,9.60
2018-12-29T02:20:24.694Z,10.38
2018-12-29T02:20:57.145Z,10.72
2018-12-29T02:21:29.617Z,10.65
2018-12-29T02:22:02.447Z,9.85
2018-12-29T02:22:34.903Z,10.72
2018-12-29T02:23:07.383Z,9.98
2018-12-29T02:23:40.179Z,9.75
2018-12-29T02:24:12.625Z,10.23
2018-12-29T02:24:45.100Z,10.95
2018-12-29T02:25:17.949Z,9.40
2018-12-29T02:25:50.824Z,10.78
2018-12-29T02:26:23.420Z,11.68
2018-12-29T02:26:56.180Z,11.55
2018-12-29T02:27:28.936Z,10.85
2018-12-29T02:28:01.398Z,11.33
2018-12-29T02:28:33.873Z,11.93
2018-12-29T02:29:06.631Z,11.75
2018-12-29T02:29:39.095Z,11.93
2018-12-29T02:30:11.668Z,12.07
2018-12-29T02:30:44.432Z,12.30
2018-12-29T02:31:17.315Z,11.65
2018-12-29T02:31:50.063Z,11.85
2018-12-29T02:32:22.827Z,11.85
2018-12-29T02:32:55.590Z,11.45
2018-12-29T02:33:28.055Z,11.50
2018-12-29T02:34:00.525Z,12.15
2018-12-29T02:34:33.288Z,12.33
2018-12-29T02:35:05.748Z,12.13
2018-12-29T02:35:38.191Z,12.70
2018-12-29T02:36:10.645Z,12.55
2018-12-29T02:36:43.441Z,13.05
2018-12-29T02:37:15.924Z,12.35
2018-12-29T02:37:48.671Z,11.85
2018-12-29T02:38:21.137Z,12.28
2018-12-29T02:38:53.608Z,12.28
2018-12-29T02:39:26.470Z,11.90
2018-12-29T02:39:58.929Z,11.57
2018-12-29T02:40:31.401Z,12.80
2018-12-29T02:41:04.168Z,11.20
2018-12-29T02:41:36.648Z,12.18
2018-12-29T02:42:09.126Z,11.90
2018-12-29T02:42:41.586Z,12.95
2018-12-29T02:43:14.055Z,11.93
2018-12-29T02:43:46.868Z,12.00
2018-12-29T02:44:19.343Z,12.37
2018-12-29T02:44:51.801Z,12.05
2018-12-29T02:45:24.268Z,12.73
2018-12-29T02:45:56.717Z,12.25
2018-12-29T02:46:29.180Z,12.30
2018-12-29T02:47:01.658Z,12.53
2018-12-29T02:47:34.125Z,14.35
2018-12-29T02:48:06.581Z,13.05
2018-12-29T02:48:39.413Z,13.03
2018-12-29T02:49:11.880Z,13.13
2018-12-29T02:49:45.000Z,14.23
2018-12-29T02:50:17.820Z,13.55
2018-12-29T02:50:50.860Z,13.95
2018-12-29T02:51:23.311Z,13.08
2018-12-29T02:51:56.125Z,13.50
2018-12-29T02:52:28.901Z,13.75
2018-12-29T02:53:01.389Z,13.65
2018-12-29T02:53:33.863Z,14.78
2018-12-29T02:54:06.443Z,13.25
2018-12-29T02:54:38.916Z,15.55
2018-12-29T02:55:11.366Z,14.95
2018-12-29T02:55:43.821Z,14.90
2018-12-29T02:56:16.313Z,14.23
2018-12-29T02:56:48.777Z,15.05
2018-12-29T02:57:21.234Z,15.20
2018-12-29T02:57:54.016Z,15.10
2018-12-29T02:58:26.511Z,15.05
2018-12-29T02:58:59.346Z,14.50
2018-12-29T02:59:31.807Z,15.28
2018-12-29T03:00:04.299Z,15.10
2018-12-29T03:00:36.765Z,14.78
2018-12-29T03:01:09.373Z,15.08
2018-12-29T03:01:41.844Z,14.93
2018-12-29T03:02:14.678Z,14.40
2018-12-29T03:02:47.519Z,14.80
2018-12-29T03:03:20.311Z,15.43
2018-12-29T03:03:53.187Z,17.80
2018-12-29T03:04:25.693Z,15.85
2018-12-29T03:04:58.179Z,16.50
2018-12-29T03:05:30.639Z,16.25
2018-12-29T03:06:03.117Z,15.90
2018-12-29T03:06:35.580Z,15.15
2018-12-29T03:07:08.051Z,15.63
2018-12-29T03:07:40.501Z,16.93
2018-12-29T03:08:12.961Z,17.20
2018-12-29T03:08:45.416Z,16.50
2018-12-29T03:09:17.904Z,16.37
2018-12-29T03:09:51.020Z,15.15
2018-12-29T03:10:23.475Z,14.95
2018-12-29T03:10:56.774Z,16.50
2018-12-29T03:11:29.253Z,15.23
2018-12-29T03:12:01.710Z,15.50
2018-12-29T03:12:34.192Z,15.28
2018-12-29T03:13:06.641Z,16.97
2018-12-29T03:13:39.109Z,16.57
2018-12-29T03:14:11.572Z,16.97
2018-12-29T03:14:44.051Z,16.10
2018-12-29T03:15:16.948Z,17.15
2018-12-29T03:15:49.722Z,16.15
2018-12-29T03:16:22.475Z,14.60
2018-12-29T03:16:55.296Z,14.80
2018-12-29T03:17:28.197Z,16.30
2018-12-29T03:18:00.653Z,15.98
2018-12-29T03:18:33.122Z,19.02
2018-12-29T03:19:05.587Z,16.55
2018-12-29T03:19:38.037Z,16.32
2018-12-29T03:20:10.535Z,16.73
2018-12-29T03:20:43.334Z,17.12
2018-12-29T03:21:16.206Z,16.80
2018-12-29T03:21:48.776Z,16.62
2018-12-29T03:22:21.604Z,17.30
2018-12-29T03:22:54.080Z,16.23
2018-12-29T03:23:26.533Z,16.85
2018-12-29T03:23:58.987Z,16.97
2018-12-29T03:24:31.449Z,18.73
2018-12-29T03:25:04.442Z,16.87
2018-12-29T03:25:36.923Z,18.10
2018-12-29T03:26:09.390Z,18.50
2018-12-29T03:26:41.834Z,16.97
2018-12-29T03:27:14.664Z,17.62
2018-12-29T03:27:47.389Z,17.02
2018-12-29T03:28:20.213Z,16.37
2018-12-29T03:28:52.653Z,18.10
2018-12-29T03:29:25.115Z,17.45
2018-12-29T03:29:57.898Z,17.85
2018-12-29T03:30:30.368Z,17.55
2018-12-29T03:31:03.538Z,17.42
2018-12-29T03:31:36.012Z,17.62
2018-12-29T03:32:08.473Z,17.92
2018-12-29T03:32:40.922Z,18.98
2018-12-29T03:33:13.381Z,18.52
2018-12-29T03:33:45.836Z,17.87
2018-12-29T03:34:18.303Z,17.07
2018-12-29T03:34:50.767Z,17.75
2018-12-29T03:35:23.227Z,18.42
2018-12-29T03:35:55.677Z,17.60
2018-12-29T03:36:28.165Z,18.27
2018-12-29T03:37:00.644Z,19.37
2018-12-29T03:37:33.106Z,17.98
2018-12-29T03:38:05.580Z,18.20
2018-12-29T03:38:38.034Z,19.02
2018-12-29T03:39:10.484Z,18.90
2018-12-29T03:39:43.043Z,20.17
2018-12-29T03:40:15.497Z,17.98
2018-12-29T03:40:47.972Z,17.67
2018-12-29T03:41:20.425Z,19.05
2018-12-29T03:41:53.213Z,18.35
2018-12-29T03:42:25.666Z,18.42
2018-12-29T03:42:58.227Z,18.45
2018-12-29T03:43:30.694Z,19.32
2018-12-29T03:44:03.188Z,19.10
2018-12-29T03:44:35.628Z,18.77
2018-12-29T03:45:08.085Z,18.15
2018-12-29T03:45:40.565Z,19.15
2018-12-29T03:46:13.042Z,17.48
2018-12-29T03:46:45.836Z,18.37
2018-12-29T03:47:18.743Z,18.67
2018-12-29T03:47:51.207Z,17.75
2018-12-29T03:48:23.674Z,19.73
2018-12-29T03:48:56.134Z,20.30
2018-12-29T03:49:28.604Z,17.52
2018-12-29T03:50:01.045Z,18.92
2018-12-29T03:50:33.502Z,18.77
2018-12-29T03:51:06.418Z,19.75
2018-12-29T03:51:38.868Z,18.80
2018-12-29T03:52:11.331Z,17.55
2018-12-29T03:52:43.806Z,20.25
2018-12-29T03:53:16.323Z,19.30
2018-12-29T03:53:48.760Z,19.65
2018-12-29T03:54:21.576Z,19.02
2018-12-29T03:54:54.149Z,18.50
2018-12-29T03:55:26.597Z,19.52
2018-12-29T03:55:59.050Z,19.27
2018-12-29T03:56:31.506Z,18.85
2018-12-29T03:57:03.987Z,19.87
2018-12-29T03:57:36.778Z,19.73
2018-12-29T03:58:09.272Z,20.32
2018-12-29T03:58:41.713Z,20.20
2018-12-29T03:59:14.183Z,19.12
2018-12-29T03:59:47.017Z,18.17
2018-12-29T04:00:19.481Z,19.23
2018-12-29T04:00:52.262Z,18.52
2018-12-29T04:01:24.717Z,18.12
2018-12-29T04:01:57.300Z,18.98
2018-12-29T04:02:29.759Z,19.27
2018-12-29T04:03:02.675Z,19.35
2018-12-29T04:03:35.166Z,19.00
2018-12-29T04:04:07.623Z,18.90
2018-12-29T04:04:40.073Z,19.70
2018-12-29T04:05:13.283Z,18.10
2018-12-29T04:05:46.567Z,19.37
2018-12-29T04:06:19.013Z,19.27
2018-12-29T04:06:51.906Z,20.35
2018-12-29T04:07:24.362Z,20.10
2018-12-29T04:07:56.805Z,20.32
2018-12-29T04:08:29.275Z,19.85
2018-12-29T04:09:32.952Z,19.48
2018-12-29T04:10:10.360Z,19.65
2018-12-29T04:10:42.801Z,18.32
2018-12-29T04:11:15.260Z,18.02
2018-12-29T04:11:47.717Z,19.37
2018-12-29T04:12:25.106Z,19.42
2018-12-29T04:12:59.322Z,19.40
2018-12-29T04:13:32.183Z,19.73
2018-12-29T04:14:04.644Z,20.12
2018-12-29T04:14:37.566Z,20.25
2018-12-29T04:15:10.031Z,20.02
2018-12-29T04:15:42.762Z,18.25
2018-12-29T04:16:15.212Z,19.12
2018-12-29T04:16:47.681Z,20.35
2018-12-29T04:17:20.417Z,19.77
2018-12-29T04:17:53.259Z,20.12
2018-12-29T04:18:25.715Z,20.30
2018-12-29T04:18:58.160Z,19.05
2018-12-29T04:19:31.033Z,19.27
2018-12-29T04:20:03.812Z,19.12
2018-12-29T04:20:36.198Z,19.23
2018-12-29T04:21:08.651Z,19.82
2018-12-29T04:21:41.106Z,19.15
2018-12-29T04:22:13.870Z,19.60
2018-12-29T04:22:46.330Z,18.57
2018-12-29T04:23:19.212Z,18.70
2018-12-29T04:23:51.662Z,19.80
2018-12-29T04:24:24.097Z,20.72
2018-12-29T04:24:56.564Z,20.62
2018-12-29T04:25:29.383Z,18.60
2018-12-29T04:26:01.908Z,19.73
2018-12-29T04:26:34.293Z,19.57
2018-12-29T04:27:06.766Z,18.67
2018-12-29T04:27:39.247Z,17.90
2018-12-29T04:28:11.700Z,20.40
2018-12-29T04:28:44.497Z,19.27
2018-12-29T04:29:16.964Z,19.05
2018-12-29T04:29:49.411Z,20.65
2018-12-29T04:30:22.332Z,19.27
2018-12-29T04:30:54.813Z,20.43
2018-12-29T04:31:27.279Z,20.20
2018-12-29T04:31:59.734Z,19.45
2018-12-29T04:32:32.189Z,19.02
2018-12-29T04:33:04.649Z,20.20
2018-12-29T04:33:37.483Z,20.02
2018-12-29T04:34:09.944Z,19.92
2018-12-29T04:34:42.402Z,19.15
2018-12-29T04:35:14.867Z,19.50
2018-12-29T04:35:47.319Z,19.70
2018-12-29T04:36:20.133Z,19.75
2018-12-29T04:36:52.598Z,19.17
2018-12-29T04:37:25.067Z,20.20
2018-12-29T04:37:57.522Z,20.35
2018-12-29T04:38:30.401Z,19.75
2018-12-29T04:39:04.210Z,21.55
2018-12-29T04:39:36.675Z,19.80
2018-12-29T04:40:09.125Z,20.82
2018-12-29T04:40:41.590Z,19.42
2018-12-29T04:41:14.384Z,18.85
2018-12-29T04:41:47.267Z,20.45
2018-12-29T04:42:20.071Z,20.88
2018-12-29T04:42:52.838Z,21.40
2018-12-29T04:43:25.598Z,20.62
2018-12-29T04:43:58.041Z,20.37
2018-12-29T04:44:30.507Z,20.15
2018-12-29T04:45:02.969Z,18.60
2018-12-29T04:45:35.426Z,19.27
2018-12-29T04:46:08.198Z,18.73
2018-12-29T04:46:40.679Z,18.52
2018-12-29T04:47:13.166Z,19.25
2018-12-29T04:47:46.313Z,18.85
2018-12-29T04:48:18.757Z,18.52
2018-12-29T04:48:51.215Z,19.10
2018-12-29T04:49:23.990Z,19.07
2018-12-29T04:49:56.446Z,20.12
2018-12-29T04:50:28.903Z,20.12
2018-12-29T04:51:01.728Z,19.67
2018-12-29T04:51:34.462Z,20.35
2018-12-29T04:52:07.925Z,19.48
2018-12-29T04:52:40.397Z,19.15
2018-12-29T04:53:12.840Z,20.25
2018-12-29T04:53:45.417Z,19.32
2018-12-29T04:54:17.879Z,19.48
2018-12-29T04:54:50.717Z,19.52
2018-12-29T04:55:23.538Z,20.72
2018-12-29T04:55:56.407Z,18.35
2018-12-29T04:56:29.169Z,20.27
2018-12-29T04:57:01.942Z,19.87
2018-12-29T04:57:34.762Z,18.98
2018-12-29T04:58:07.567Z,19.10
2018-12-29T04:58:40.342Z,18.80
2018-12-29T04:59:12.805Z,19.25
2018-12-29T04:59:45.277Z,19.57
2018-12-29T05:00:17.732Z,19.35
2018-12-29T05:00:50.243Z,20.85
2018-12-29T05:01:22.690Z,20.55
2018-12-29T05:01:55.524Z,19.50
2018-12-29T05:02:28.410Z,21.00
2018-12-29T05:03:00.871Z,20.23
2018-12-29T05:03:33.363Z,19.25
2018-12-29T05:04:05.922Z,19.65
2018-12-29T05:04:38.755Z,20.20
2018-12-29T05:05:11.508Z,19.50
2018-12-29T05:05:43.960Z,19.70
2018-12-29T05:06:16.429Z,19.82
2018-12-29T05:06:48.883Z,20.02
2018-12-29T05:07:21.330Z,19.02
2018-12-29T05:07:53.782Z,19.95
2018-12-29T05:08:26.254Z,20.15
2018-12-29T05:08:58.745Z,19.62
2018-12-29T05:09:31.630Z,21.50
2018-12-29T05:10:04.145Z,20.48
2018-12-29T05:10:37.001Z,20.75
2018-12-29T05:11:09.463Z,20.50
2018-12-29T05:11:41.917Z,19.50
2018-12-29T05:12:14.731Z,20.57
2018-12-29T05:12:47.191Z,19.92
2018-12-29T05:13:19.963Z,20.80
2018-12-29T05:13:52.433Z,20.08
2018-12-29T05:14:25.355Z,19.00
2018-12-29T05:14:58.255Z,20.62
2018-12-29T05:15:31.091Z,19.48
2018-12-29T05:16:03.905Z,20.77
2018-12-29T05:16:36.362Z,19.52
2018-12-29T05:17:08.839Z,20.20
2018-12-29T05:17:41.686Z,19.90
2018-12-29T05:18:14.305Z,20.15
2018-12-29T05:18:46.724Z,20.00
2018-12-29T05:19:19.179Z,17.92
2018-12-29T05:19:51.687Z,21.15
2018-12-29T05:20:24.709Z,20.68
2018-12-29T05:20:57.159Z,21.37
2018-12-29T05:21:30.388Z,20.00
2018-12-29T05:22:02.923Z,20.62
2018-12-29T05:22:35.315Z,20.72
2018-12-29T05:23:08.059Z,21.02
2018-12-29T05:23:40.507Z,19.75
2018-12-29T05:24:12.964Z,20.68
2018-12-29T05:24:45.425Z,21.68
2018-12-29T05:25:18.177Z,19.57
2018-12-29T05:25:50.971Z,19.98
2018-12-29T05:26:23.741Z,20.55
2018-12-29T05:26:56.221Z,22.32
2018-12-29T05:27:29.207Z,20.85
2018-12-29T05:28:02.142Z,21.87
2018-12-29T05:28:34.621Z,20.57
2018-12-29T05:29:07.555Z,20.60
2018-12-29T05:29:40.038Z,21.02
2018-12-29T05:30:12.504Z,20.88
2018-12-29T05:30:45.371Z,22.27
2018-12-29T05:31:17.829Z,21.50
2018-12-29T05:31:50.286Z,19.30
2018-12-29T05:32:22.773Z,20.57
2018-12-29T05:32:55.247Z,20.82
2018-12-29T05:33:28.095Z,22.17
2018-12-29T05:34:00.577Z,20.55
2018-12-29T05:34:33.037Z,19.80
2018-12-29T05:35:05.663Z,20.20
2018-12-29T05:35:38.705Z,20.17
2018-12-29T05:36:11.173Z,20.25
2018-12-29T05:36:43.641Z,21.05
2018-12-29T05:37:16.115Z,21.57
2018-12-29T05:37:48.594Z,21.50
2018-12-29T05:38:21.070Z,21.57
2018-12-29T05:38:53.728Z,19.27
2018-12-29T05:39:26.203Z,20.88
2018-12-29T05:39:58.681Z,21.73
2018-12-29T05:40:31.197Z,21.33
2018-12-29T05:41:03.676Z,21.00
2018-12-29T05:41:36.234Z,22.52
2018-12-29T05:42:08.701Z,20.72
2018-12-29T05:42:41.207Z,22.22
2018-12-29T05:43:13.699Z,21.77
2018-12-29T05:43:46.171Z,20.60
2018-12-29T05:44:18.642Z,21.48
2018-12-29T05:44:51.169Z,22.65
2018-12-29T05:45:24.091Z,21.07
2018-12-29T05:45:56.695Z,21.10
2018-12-29T05:46:29.595Z,19.67
2018-12-29T05:47:02.263Z,21.27
2018-12-29T05:47:34.702Z,20.37
2018-12-29T05:48:08.012Z,20.08
2018-12-29T05:48:40.481Z,21.37
2018-12-29T05:49:12.926Z,20.48
2018-12-29T05:49:45.394Z,23.52
2018-12-29T05:50:17.846Z,21.65
2018-12-29T05:50:50.616Z,21.70
2018-12-29T05:51:23.091Z,22.10
2018-12-29T05:51:55.949Z,21.50
2018-12-29T05:52:28.440Z,21.50
2018-12-29T05:53:00.914Z,22.50
2018-12-29T05:53:33.418Z,22.73
2018-12-29T05:54:05.909Z,22.17
2018-12-29T05:54:38.373Z,21.02
2018-12-29T05:55:10.860Z,22.48
2018-12-29T05:55:43.683Z,21.23
2018-12-29T05:56:17.856Z,19.27
2018-12-29T05:56:50.583Z,22.58
2018-12-29T05:57:23.325Z,20.08
2018-12-29T05:57:55.826Z,22.80
2018-12-29T05:58:28.643Z,22.25
2018-12-29T05:59:01.118Z,19.65
2018-12-29T05:59:33.984Z,22.90
2018-12-29T06:00:06.682Z,22.32
2018-12-29T06:00:39.171Z,21.70
2018-12-29T06:01:11.648Z,23.57
2018-12-29T06:01:44.142Z,21.68
2018-12-29T06:02:16.894Z,21.97
2018-12-29T06:02:49.354Z,21.73
2018-12-29T06:03:21.889Z,21.77
2018-12-29T06:03:54.473Z,22.85
2018-12-29T06:04:26.950Z,22.45
2018-12-29T06:04:59.440Z,22.07
2018-12-29T06:05:31.924Z,23.18
2018-12-29T06:06:04.835Z,21.95
2018-12-29T06:06:37.313Z,20.88
2018-12-29T06:07:09.795Z,21.95
2018-12-29T06:07:42.274Z,22.22
2018-12-29T06:08:14.743Z,22.80
2018-12-29T06:08:47.613Z,21.85
2018-12-29T06:09:20.094Z,22.85
2018-12-29T06:09:52.575Z,21.02
2018-12-29T06:10:25.455Z,22.60
2018-12-29T06:10:58.286Z,21.50
2018-12-29T06:11:30.788Z,24.92
2018-12-29T06:12:03.250Z,22.37
2018-12-29T06:12:36.035Z,22.50
2018-12-29T06:13:08.497Z,23.12
2018-12-29T06:13:41.441Z,22.62
2018-12-29T06:14:13.929Z,21.12
2018-12-29T06:14:46.411Z,21.95
2018-12-29T06:15:19.231Z,21.73
2018-12-29T06:15:51.709Z,21.60
2018-12-29T06:16:27.630Z,22.82
2018-12-29T06:16:58.849Z,21.23
2018-12-29T06:17:31.309Z,22.70
2018-12-29T06:18:03.795Z,23.75
2018-12-29T06:18:36.264Z,22.45
2018-12-29T06:19:08.728Z,22.35
2018-12-29T06:19:41.258Z,22.90
2018-12-29T06:20:13.739Z,23.12
2018-12-29T06:20:46.191Z,22.80
2018-12-29T06:21:18.974Z,23.32
2018-12-29T06:21:51.605Z,22.32
2018-12-29T06:22:24.077Z,21.95
2018-12-29T06:22:56.547Z,23.92
2018-12-29T06:23:29.030Z,22.77
2018-12-29T06:24:01.490Z,23.75
2018-12-29T06:24:33.965Z,22.67
2018-12-29T06:25:06.476Z,22.67
2018-12-29T06:25:39.382Z,23.25
2018-12-29T06:26:11.855Z,21.93
2018-12-29T06:26:44.321Z,21.82
2018-12-29T06:27:16.812Z,23.05
2018-12-29T06:27:49.318Z,23.85
2018-12-29T06:28:22.229Z,23.02
2018-12-29T06:28:55.057Z,22.70
2018-12-29T06:29:27.517Z,22.15
2018-12-29T06:29:59.996Z,21.68
2018-12-29T06:30:32.501Z,22.48
2018-12-29T06:31:05.256Z,20.85
2018-12-29T06:31:37.731Z,21.42
2018-12-29T06:32:10.204Z,21.93
2018-12-29T06:32:42.680Z,22.10
2018-12-29T06:33:15.587Z,22.95
2018-12-29T06:33:48.454Z,21.90
2018-12-29T06:34:20.917Z,22.70
2018-12-29T06:34:53.512Z,22.25
2018-12-29T06:35:26.007Z,21.95
2018-12-29T06:35:58.518Z,23.05
2018-12-29T06:36:31.000Z,22.40
2018-12-29T06:37:03.466Z,22.13
2018-12-29T06:37:35.941Z,23.25
2018-12-29T06:38:08.495Z,22.30
2018-12-29T06:38:41.564Z,22.10
2018-12-29T06:39:14.031Z,23.10
2018-12-29T06:39:46.858Z,22.37
2018-12-29T06:40:19.333Z,22.62
2018-12-29T06:40:51.811Z,22.73
2018-12-29T06:41:24.624Z,22.87
2018-12-29T06:41:57.106Z,24.30
2018-12-29T06:42:29.591Z,23.38
2018-12-29T06:43:02.066Z,22.15
2018-12-29T06:43:34.551Z,22.45
2018-12-29T06:44:07.406Z,21.70
2018-12-29T06:44:41.140Z,21.77
2018-12-29T06:45:13.624Z,21.57
2018-12-29T06:45:46.088Z,22.00
2018-12-29T06:46:18.545Z,21.68
2018-12-29T06:46:51.061Z,22.70
2018-12-29T06:47:23.823Z,20.97
2018-12-29T06:47:56.639Z,20.95
2018-12-29T06:48:29.127Z,21.70
2018-12-29T06:49:01.606Z,23.40
2018-12-29T06:49:34.073Z,21.55
2018-12-29T06:50:06.552Z,20.70
2018-12-29T06:50:39.047Z,21.85
2018-12-29T06:51:11.530Z,22.22
2018-12-29T06:51:44.003Z,21.57
2018-12-29T06:52:16.524Z,23.45
2018-12-29T06:52:48.977Z,22.70
2018-12-29T06:53:21.446Z,23.32
2018-12-29T06:53:53.927Z,21.12
2018-12-29T06:54:26.394Z,22.98
2018-12-29T06:54:58.874Z,22.95
2018-12-29T06:55:31.331Z,21.55
2018-12-29T06:56:03.829Z,24.75
2018-12-29T06:56:36.697Z,21.57
2018-12-29T06:57:09.175Z,23.07
2018-12-29T06:57:41.833Z,22.45
2018-12-29T06:58:14.755Z,24.40
2018-12-29T06:58:47.247Z,23.85
2018-12-29T06:59:19.724Z,22.42
2018-12-29T06:59:52.196Z,22.32
2018-12-29T07:00:24.731Z,23.40
2018-12-29T07:00:57.215Z,22.60
2018-12-29T07:01:29.689Z,23.77
2018-12-29T07:02:02.195Z,22.75
2018-12-29T07:02:34.668Z,23.83
2018-12-29T07:03:07.174Z,22.17
2018-12-29T07:03:40.019Z,21.82
2018-12-29T07:04:12.507Z,21.57
2018-12-29T07:04:44.981Z,22.82
2018-12-29T07:05:17.616Z,23.57
2018-12-29T07:05:50.103Z,24.07
2018-12-29T07:06:22.554Z,23.62